createdAt,value
2023-05-02T05:03:10.134Z,42.87
2023-05-02T05:04:11.260Z,41.70
2023-05-02T05:05:10.083Z,41.53
2023-05-02T05:06:11.171Z,41.47
2023-05-02T05:07:11.123Z,41.38
2023-05-02T05:08:11.121Z,41.34
2023-05-02T05:09:11.149Z,41.31
2023-05-02T05:10:11.294Z,41.27
2023-05-02T05:11:10.246Z,41.26
2023-05-02T05:12:11.273Z,41.22
2023-05-02T05:13:10.313Z,41.18
2023-05-02T05:14:10.357Z,41.16
2023-05-02T05:15:10.357Z,41.17
2023-05-02T05:16:10.378Z,41.15
2023-05-02T05:17:10.352Z,41.13
2023-05-02T05:18:10.437Z,41.12
2023-05-02T05:19:10.395Z,41.14
2023-05-02T05:20:10.403Z,41.12
2023-05-02T05:21:11.402Z,41.11
2023-05-02T05:22:11.401Z,41.08
2023-05-02T05:23:11.408Z,41.09
2023-05-02T05:24:11.389Z,41.09
2023-05-02T05:25:11.395Z,41.09
2023-05-02T05:26:11.397Z,41.06
2023-05-02T05:27:10.397Z,41.08
2023-05-02T05:28:11.417Z,41.09
2023-05-02T05:29:10.393Z,41.09
2023-05-02T05:30:11.396Z,41.08
2023-05-02T05:31:11.439Z,41.06
2023-05-02T05:32:10.531Z,41.04
2023-05-02T05:33:11.448Z,41.05
2023-05-02T05:34:10.403Z,41.05
2023-05-02T05:35:10.422Z,41.07
2023-05-02T05:36:11.389Z,41.06
2023-05-02T05:37:10.389Z,41.07
2023-05-02T05:38:11.401Z,41.04
2023-05-02T05:39:11.371Z,41.07
2023-05-02T05:40:10.368Z,41.06
2023-05-02T05:41:11.475Z,41.07
2023-05-02T05:42:11.382Z,41.09
2023-05-02T05:43:11.371Z,41.10
2023-05-02T05:44:10.375Z,41.09
2023-05-02T05:45:11.364Z,41.10
2023-05-02T05:46:11.360Z,41.05
2023-05-02T05:47:11.410Z,41.05
2023-05-02T05:48:10.380Z,41.09
2023-05-02T05:49:10.364Z,41.07
2023-05-02T05:50:11.364Z,41.10
2023-05-02T05:51:10.396Z,41.10
2023-05-02T05:52:11.363Z,41.08
2023-05-02T05:53:11.341Z,41.11
2023-05-02T05:54:11.340Z,41.11
2023-05-02T05:55:11.335Z,41.09
2023-05-02T05:56:10.347Z,41.06
2023-05-02T05:57:10.335Z,41.08
2023-05-02T05:58:11.334Z,41.05
2023-05-02T05:59:10.333Z,41.04
2023-05-02T06:00:11.359Z,41.06
2023-05-02T06:01:10.321Z,41.05
2023-05-02T06:02:11.434Z,41.07
2023-05-02T06:03:11.458Z,41.05
2023-05-02T06:04:11.463Z,41.04
2023-05-02T06:05:11.440Z,41.07
2023-05-02T06:06:10.371Z,41.06
2023-05-02T06:07:11.347Z,41.06
2023-05-02T06:08:11.334Z,41.05
2023-05-02T06:09:10.330Z,41.02
2023-05-02T06:10:10.336Z,41.03
2023-05-02T06:11:10.318Z,41.03
2023-05-02T06:12:10.316Z,41.04
2023-05-02T06:13:11.333Z,41.03
2023-05-02T06:14:11.305Z,41.04
2023-05-02T06:15:11.298Z,41.03
2023-05-02T06:16:11.340Z,41.09
2023-05-02T06:17:11.314Z,41.07
2023-05-02T06:18:11.360Z,41.07
2023-05-02T06:19:11.292Z,41.07
2023-05-02T06:20:10.323Z,41.08
2023-05-02T06:21:11.287Z,41.03
2023-05-02T06:22:11.393Z,41.04
2023-05-02T06:23:11.322Z,41.05
2023-05-02T06:24:11.298Z,41.04
2023-05-02T06:25:11.278Z,41.05
2023-05-02T06:26:11.282Z,41.04
2023-05-02T06:27:11.298Z,41.05
2023-05-02T06:28:10.279Z,41.05
2023-05-02T06:29:10.264Z,41.06
2023-05-02T06:30:11.255Z,41.07
2023-05-02T06:31:10.309Z,41.10
2023-05-02T06:32:10.307Z,41.10
2023-05-02T06:33:11.332Z,41.10
2023-05-02T06:34:11.263Z,41.11
2023-05-02T06:35:11.245Z,41.11
2023-05-02T06:36:11.259Z,41.15
2023-05-02T06:37:11.235Z,41.14
2023-05-02T06:38:11.236Z,41.17
2023-05-02T06:39:10.366Z,41.17
2023-05-02T06:40:10.233Z,41.18
2023-05-02T06:41:10.219Z,41.15
2023-05-02T06:42:11.211Z,41.17
2023-05-02T06:43:10.199Z,41.22
2023-05-02T06:44:11.217Z,41.20
2023-05-02T06:45:11.202Z,41.26
2023-05-02T06:46:10.217Z,41.29
2023-05-02T06:47:10.315Z,41.25
2023-05-02T06:48:10.234Z,41.27
2023-05-02T06:49:10.224Z,41.27
2023-05-02T06:50:11.173Z,41.29
2023-05-02T06:51:11.182Z,41.31
2023-05-02T06:52:11.376Z,41.34
2023-05-02T06:53:11.209Z,41.32
2023-05-02T06:54:11.201Z,41.38
2023-05-02T06:55:10.418Z,41.41
2023-05-02T06:56:11.171Z,41.42
2023-05-02T06:57:10.394Z,41.38
2023-05-02T06:58:11.176Z,41.41
2023-05-02T06:59:11.217Z,41.45
2023-05-02T07:00:11.166Z,41.46
2023-05-02T07:01:11.242Z,41.46
2023-05-02T07:02:11.184Z,41.48
2023-05-02T07:03:11.337Z,41.52
2023-05-02T07:04:11.337Z,41.94
2023-05-02T07:05:10.219Z,42.07
2023-05-02T07:06:11.264Z,42.42
2023-05-02T07:07:11.284Z,42.56
2023-05-02T07:08:11.302Z,42.61
2023-05-02T07:09:11.356Z,42.74
2023-05-02T07:10:11.401Z,43.02
2023-05-02T07:11:11.654Z,42.84
2023-05-02T07:12:11.514Z,43.42
2023-05-02T07:13:11.557Z,43.31
2023-05-02T07:14:11.588Z,43.42
2023-05-02T07:15:11.624Z,43.53
2023-05-02T07:16:10.816Z,43.58
2023-05-02T07:17:11.733Z,43.75
2023-05-02T07:18:11.839Z,43.93
2023-05-02T07:19:11.774Z,43.96
2023-05-02T07:20:11.804Z,43.82
2023-05-02T07:21:11.829Z,43.97
2023-05-02T07:22:10.877Z,43.99
2023-05-02T07:23:10.931Z,44.11
2023-05-02T07:24:10.971Z,44.08
2023-05-02T07:25:11.021Z,44.35
2023-05-02T07:26:12.056Z,44.24
2023-05-02T07:27:11.115Z,43.87
2023-05-02T07:28:12.154Z,43.96
2023-05-02T07:29:12.180Z,43.93
2023-05-02T07:30:11.238Z,44.08
2023-05-02T07:31:11.295Z,43.88
2023-05-02T07:32:12.458Z,43.92
2023-05-02T07:33:11.400Z,43.98
2023-05-02T07:34:11.428Z,43.86
2023-05-02T07:35:11.457Z,43.95
2023-05-02T07:36:11.496Z,43.98
2023-05-02T07:37:12.544Z,44.00
2023-05-02T07:38:12.567Z,44.25
2023-05-02T07:39:11.596Z,44.01
2023-05-02T07:40:12.643Z,44.05
2023-05-02T07:41:12.682Z,44.14
2023-05-02T07:42:11.713Z,44.26
2023-05-02T07:43:12.794Z,44.20
2023-05-02T07:44:11.792Z,44.27
2023-05-02T07:45:12.837Z,44.31
2023-05-02T07:46:11.944Z,44.30
2023-05-02T07:47:12.400Z,44.32
2023-05-02T07:48:12.011Z,44.21
2023-05-02T07:49:12.995Z,44.43
2023-05-02T07:50:12.047Z,44.48
2023-05-02T07:51:12.103Z,44.69
2023-05-02T07:52:13.409Z,44.55
2023-05-02T07:53:13.184Z,44.83
2023-05-02T07:54:13.230Z,45.18
2023-05-02T07:55:13.259Z,44.87
2023-05-02T07:56:12.289Z,45.18
2023-05-02T07:57:13.396Z,45.20
2023-05-02T07:58:13.405Z,45.16
2023-05-02T07:59:12.480Z,45.31
2023-05-02T08:00:13.519Z,45.28
2023-05-02T08:01:12.574Z,45.31
2023-05-02T08:02:12.658Z,45.38
2023-05-02T08:03:13.737Z,45.08
2023-05-02T08:04:12.910Z,45.06
2023-05-02T08:05:13.805Z,45.21
2023-05-02T08:06:13.853Z,45.55
2023-05-02T08:07:13.839Z,45.15
2023-05-02T08:08:13.874Z,45.32
2023-05-02T08:09:13.914Z,45.01
2023-05-02T08:10:13.966Z,45.25
2023-05-02T08:11:13.023Z,45.25
2023-05-02T08:12:14.062Z,45.32
2023-05-02T08:13:14.067Z,45.12
2023-05-02T08:14:13.094Z,45.15
2023-05-02T08:19:04.326Z,46.73
2023-05-02T08:20:05.303Z,45.46
2023-05-02T08:21:04.331Z,45.27
2023-05-02T08:22:05.376Z,45.14
2023-05-02T08:23:05.419Z,45.13
2023-05-02T08:24:04.419Z,45.29
2023-05-02T08:25:04.460Z,45.32
2023-05-02T08:26:04.521Z,45.27
2023-05-02T08:27:04.561Z,45.11
2023-05-02T08:28:04.631Z,45.29
2023-05-02T08:29:05.636Z,45.23
2023-05-02T08:30:05.881Z,45.19
2023-05-02T08:31:08.741Z,45.06
2023-05-02T08:32:05.915Z,45.20
2023-05-02T08:33:05.710Z,45.29
2023-05-02T08:34:05.680Z,45.28
2023-05-02T08:35:05.731Z,45.21
2023-05-02T08:36:04.669Z,45.12
2023-05-02T08:37:05.653Z,45.15
2023-05-02T08:38:04.659Z,45.20
2023-05-02T08:39:04.641Z,45.26
2023-05-02T08:40:05.638Z,45.19
2023-05-02T08:41:05.617Z,44.99
2023-05-02T08:42:05.814Z,45.07
2023-05-02T08:43:06.121Z,45.02
2023-05-02T08:44:05.613Z,45.01
2023-05-02T08:45:04.649Z,44.93
2023-05-02T08:46:05.595Z,45.00
2023-05-02T08:47:05.734Z,44.93
2023-05-02T08:48:05.623Z,44.90
2023-05-02T08:49:05.564Z,44.89
2023-05-02T08:50:05.580Z,44.80
2023-05-02T08:51:05.619Z,44.82
2023-05-02T08:52:05.565Z,44.77
2023-05-02T08:53:05.548Z,44.74
2023-05-02T08:54:04.528Z,44.68
2023-05-02T08:55:05.523Z,44.65
2023-05-02T08:56:04.533Z,44.57
2023-05-02T08:57:05.525Z,44.55
2023-05-02T08:58:05.630Z,44.55
2023-05-02T08:59:04.506Z,44.61
2023-05-02T09:00:04.494Z,44.69
2023-05-02T09:01:04.541Z,44.78
2023-05-02T09:02:04.467Z,44.76
2023-05-02T09:03:05.555Z,44.76
2023-05-02T09:04:04.608Z,44.85
2023-05-02T09:05:04.456Z,44.88
2023-05-02T09:06:05.494Z,45.03
2023-05-02T09:07:05.458Z,45.02
2023-05-02T09:08:04.417Z,44.99
2023-05-02T09:09:04.426Z,44.98
2023-05-02T09:10:05.407Z,45.08
2023-05-02T09:11:04.392Z,45.10
2023-05-02T09:12:04.397Z,45.10
2023-05-02T09:13:05.391Z,45.02
2023-05-02T09:14:05.372Z,45.12
2023-05-02T09:15:04.363Z,45.09
2023-05-02T09:16:05.486Z,45.14
2023-05-02T09:17:04.357Z,45.25
2023-05-02T09:18:05.415Z,45.25
2023-05-02T09:19:05.350Z,45.31
2023-05-02T09:20:04.334Z,45.17
2023-05-02T09:21:05.324Z,45.13
2023-05-02T09:22:05.322Z,45.17
2023-05-02T09:23:05.337Z,45.18
2023-05-02T09:24:05.294Z,45.13
2023-05-02T09:25:05.288Z,45.08
2023-05-02T09:26:05.303Z,45.24
2023-05-02T09:27:05.293Z,45.31
2023-05-02T09:28:05.295Z,45.37
2023-05-02T09:29:04.346Z,45.50
2023-05-02T09:30:04.269Z,45.43
2023-05-02T09:31:05.287Z,45.50
2023-05-02T09:32:05.263Z,45.49
2023-05-02T09:33:05.275Z,45.63
2023-05-02T09:34:05.247Z,45.46
2023-05-02T09:35:04.228Z,45.49
2023-05-02T09:36:04.225Z,45.46
2023-05-02T09:37:05.212Z,45.61
2023-05-02T09:38:05.233Z,45.48
2023-05-02T09:39:05.264Z,45.58
2023-05-02T09:40:04.255Z,45.65
2023-05-02T09:41:05.246Z,45.76
2023-05-02T09:42:05.268Z,45.84
2023-05-02T09:43:05.288Z,46.09
2023-05-02T09:44:05.265Z,46.27
2023-05-02T09:45:04.267Z,46.24
2023-05-02T09:46:05.306Z,46.17
2023-05-02T09:47:05.270Z,46.18
2023-05-02T09:48:05.702Z,46.12
2023-05-02T09:49:04.259Z,46.14
2023-05-02T09:50:05.255Z,46.03
2023-05-02T09:51:04.251Z,46.08
2023-05-02T09:52:04.295Z,46.03
2023-05-02T09:53:05.288Z,46.13
2023-05-02T09:54:05.306Z,46.13
2023-05-02T09:55:04.323Z,46.57
2023-05-02T09:56:05.304Z,46.66
2023-05-02T09:57:04.294Z,46.77
2023-05-02T09:58:05.309Z,46.87
2023-05-02T09:59:04.294Z,46.78
2023-05-02T10:00:05.307Z,47.18
2023-05-02T10:01:05.352Z,47.46
2023-05-02T10:02:05.531Z,47.45
2023-05-02T10:03:04.512Z,47.74
2023-05-02T10:04:04.571Z,47.98
2023-05-02T10:05:05.600Z,47.73
2023-05-02T10:06:05.710Z,47.65
2023-05-02T10:07:05.724Z,47.99
2023-05-02T10:08:04.782Z,47.81
2023-05-02T10:09:05.838Z,47.92
2023-05-02T10:10:04.908Z,48.07
2023-05-02T10:11:05.970Z,48.12
2023-05-02T10:12:05.141Z,48.31
2023-05-02T10:13:06.067Z,48.11
2023-05-02T10:14:06.122Z,48.36
2023-05-02T10:15:06.160Z,48.26
2023-05-02T10:16:05.573Z,48.31
2023-05-02T10:17:05.262Z,48.47
2023-05-02T10:18:05.317Z,48.58
2023-05-02T10:19:06.336Z,48.70
2023-05-02T10:20:06.387Z,48.56
2023-05-02T10:21:05.426Z,48.90
2023-05-02T10:22:06.486Z,48.79
2023-05-02T10:23:06.512Z,48.66
2023-05-02T10:24:06.560Z,48.79
2023-05-02T10:25:05.629Z,47.99
2023-05-02T10:26:06.666Z,48.45
2023-05-02T10:27:06.755Z,48.12
2023-05-02T10:28:05.728Z,48.55
2023-05-02T10:29:06.768Z,48.53
2023-05-02T10:30:05.767Z,47.28
2023-05-02T10:31:06.771Z,48.18
2023-05-02T10:32:05.962Z,47.72
2023-05-02T10:33:06.861Z,48.04
2023-05-02T10:34:06.813Z,48.25
2023-05-02T10:35:06.869Z,47.41
2023-05-02T10:36:05.860Z,47.38
2023-05-02T10:37:06.918Z,48.47
2023-05-02T10:38:05.917Z,48.06
2023-05-02T10:39:05.950Z,48.08
2023-05-02T10:40:07.011Z,47.82
2023-05-02T10:41:06.051Z,46.12
2023-05-02T10:42:06.079Z,48.08
2023-05-02T10:43:07.124Z,47.13
2023-05-02T10:44:06.659Z,47.21
2023-05-02T10:45:06.170Z,48.56
2023-05-02T10:46:07.222Z,47.75
2023-05-02T10:47:06.393Z,46.67
2023-05-02T10:48:06.293Z,46.91
2023-05-02T10:49:06.392Z,48.95
2023-05-02T10:50:07.294Z,48.55
2023-05-02T10:51:07.332Z,47.89
2023-05-02T10:52:07.416Z,48.92
2023-05-02T10:53:07.376Z,48.72
2023-05-02T10:54:07.449Z,48.62
2023-05-02T10:55:07.424Z,48.86
2023-05-02T10:56:06.488Z,48.61
2023-05-02T10:57:07.557Z,48.64
2023-05-02T10:58:07.568Z,48.41
2023-05-02T10:59:06.634Z,48.17
2023-05-02T11:00:06.619Z,48.07
2023-05-02T11:01:07.723Z,47.69
2023-05-02T11:02:07.821Z,46.40
2023-05-02T11:03:07.795Z,46.77
2023-05-02T11:04:07.797Z,46.58
2023-05-02T11:05:06.854Z,47.77
2023-05-02T11:06:08.057Z,47.78
2023-05-02T11:07:06.969Z,47.44
2023-05-02T11:08:08.004Z,48.13
2023-05-02T11:09:08.067Z,48.29
2023-05-02T11:10:08.079Z,48.06
2023-05-02T11:11:08.113Z,48.25
2023-05-02T11:12:08.163Z,48.10
2023-05-02T11:13:07.146Z,48.00
2023-05-02T11:14:08.164Z,48.19
2023-05-02T11:15:07.187Z,47.96
2023-05-02T11:16:08.193Z,47.74
2023-05-02T11:17:08.175Z,47.83
2023-05-02T11:18:08.247Z,47.88
2023-05-02T11:19:08.191Z,47.81
2023-05-02T11:20:07.175Z,47.72
2023-05-02T11:21:08.168Z,47.48
2023-05-02T11:22:08.187Z,47.43
2023-05-02T11:23:08.175Z,47.36
2023-05-02T11:24:07.226Z,46.45
2023-05-02T11:25:07.211Z,46.29
2023-05-02T11:26:08.268Z,46.59
2023-05-02T11:27:08.290Z,46.28
2023-05-02T11:28:07.354Z,46.79
2023-05-02T11:29:08.370Z,47.14
2023-05-02T11:30:07.406Z,47.20
2023-05-02T11:31:08.448Z,47.07
2023-05-02T11:32:08.722Z,48.04
2023-05-02T11:33:08.711Z,47.25
2023-05-02T11:34:07.554Z,46.85
2023-05-02T11:35:07.558Z,46.56
2023-05-02T11:36:07.631Z,46.39
2023-05-02T11:37:07.599Z,46.29
2023-05-02T11:38:08.624Z,46.23
2023-05-02T11:39:08.213Z,46.07
2023-05-02T11:40:08.671Z,46.06
2023-05-02T11:41:08.708Z,46.08
2023-05-02T11:42:08.742Z,46.07
2023-05-02T11:43:08.789Z,46.08
2023-05-02T11:44:08.917Z,46.17
2023-05-02T11:45:08.917Z,46.15
2023-05-02T11:46:08.047Z,46.20
2023-05-02T11:47:08.147Z,46.23
2023-05-02T11:48:08.213Z,46.24
2023-05-02T11:49:10.552Z,46.25
2023-05-02T11:50:09.099Z,46.21
2023-05-02T11:51:08.079Z,46.23
2023-05-02T11:52:09.089Z,46.24
2023-05-02T11:53:08.056Z,46.24
2023-05-02T11:54:08.106Z,46.17
2023-05-02T11:55:09.787Z,46.17
2023-05-02T11:56:09.144Z,46.14
2023-05-02T11:57:08.074Z,46.12
2023-05-02T11:58:08.048Z,46.10
2023-05-02T11:59:08.042Z,46.07
2023-05-02T12:00:08.083Z,46.01
2023-05-02T12:01:09.518Z,45.99
2023-05-02T12:02:08.121Z,45.97
2023-05-02T12:03:08.096Z,45.95
2023-05-02T12:04:08.233Z,45.94
2023-05-02T12:05:08.034Z,45.86
2023-05-02T12:06:08.069Z,45.79
2023-05-02T12:07:11.591Z,45.77
2023-05-02T12:08:08.966Z,45.72
2023-05-02T12:09:08.961Z,45.66
2023-05-02T12:10:08.966Z,45.64
2023-05-02T12:11:08.932Z,45.60
2023-05-02T12:12:07.924Z,45.54
2023-05-02T12:13:10.159Z,45.52
2023-05-02T12:14:08.927Z,45.44
2023-05-02T12:15:08.912Z,45.42
2023-05-02T12:16:07.908Z,45.39
2023-05-02T12:17:08.877Z,45.34
2023-05-02T12:18:08.984Z,45.31
2023-05-02T12:19:08.908Z,45.28
2023-05-02T12:20:08.945Z,45.21
2023-05-02T12:21:08.870Z,45.18
2023-05-02T12:22:08.853Z,45.14
2023-05-02T12:23:07.844Z,45.08
2023-05-02T12:24:08.837Z,45.04
2023-05-02T12:25:07.828Z,45.00
2023-05-02T12:26:07.818Z,44.94
2023-05-02T12:27:07.825Z,44.93
2023-05-02T12:28:08.803Z,44.95
2023-05-02T12:29:07.794Z,44.81
2023-05-02T12:30:08.785Z,44.78
2023-05-02T12:31:08.808Z,44.70
2023-05-02T12:32:08.770Z,44.74
2023-05-02T12:33:07.937Z,44.76
2023-05-02T12:34:08.753Z,44.71
2023-05-02T12:35:08.764Z,44.72
2023-05-02T12:36:07.742Z,44.73
2023-05-02T12:37:07.862Z,44.70
2023-05-02T12:38:08.768Z,44.69
2023-05-02T12:39:08.727Z,44.66
2023-05-02T12:40:08.735Z,44.60
2023-05-02T12:41:07.712Z,44.66
2023-05-02T12:42:07.705Z,44.68
2023-05-02T12:43:08.714Z,44.65
2023-05-02T12:44:08.685Z,44.71
2023-05-02T12:45:07.674Z,44.68
2023-05-02T12:46:08.675Z,44.85
2023-05-02T12:47:08.985Z,45.59
2023-05-02T12:48:08.721Z,46.12
2023-05-02T12:49:08.643Z,46.32
2023-05-02T12:50:08.654Z,46.93
2023-05-02T12:51:08.649Z,47.14
2023-05-02T12:52:07.633Z,47.28
2023-05-02T12:53:08.630Z,47.46
2023-05-02T12:54:07.596Z,46.94
2023-05-02T12:55:08.597Z,46.85
2023-05-02T12:56:07.605Z,46.83
2023-05-02T12:57:07.578Z,46.70
2023-05-02T12:58:08.567Z,46.56
2023-05-02T12:59:07.573Z,46.57
2023-05-02T13:00:07.574Z,46.50
2023-05-02T13:01:07.578Z,46.54
2023-05-02T13:02:08.564Z,46.60
2023-05-02T13:03:08.609Z,46.55
2023-05-02T13:04:08.622Z,46.55
2023-05-02T13:05:07.527Z,46.54
2023-05-02T13:06:08.529Z,46.55
2023-05-02T13:07:08.527Z,46.50
2023-05-02T13:08:08.516Z,46.52
2023-05-02T13:09:07.593Z,46.51
2023-05-02T13:10:07.499Z,46.46
2023-05-02T13:11:08.485Z,46.44
2023-05-02T13:12:07.509Z,46.40
2023-05-02T13:13:07.485Z,46.37
2023-05-02T13:14:08.469Z,46.39
2023-05-02T13:15:07.479Z,46.37
2023-05-02T13:16:07.568Z,46.32
2023-05-02T13:17:08.668Z,46.35
2023-05-02T13:18:07.531Z,46.28
2023-05-02T13:19:08.444Z,46.28
2023-05-02T13:20:07.777Z,46.23
2023-05-02T13:21:08.421Z,46.26
2023-05-02T13:22:08.403Z,46.23
2023-05-02T13:23:07.715Z,46.20
2023-05-02T13:24:08.390Z,46.15
2023-05-02T13:25:08.401Z,46.17
2023-05-02T13:26:08.390Z,46.20
2023-05-02T13:27:07.381Z,46.19
2023-05-02T13:28:07.381Z,46.14
2023-05-02T13:29:08.373Z,46.10
2023-05-02T13:30:09.428Z,46.11
2023-05-02T13:31:07.441Z,46.11
2023-05-02T13:32:08.415Z,46.11
2023-05-02T13:33:07.471Z,46.08
2023-05-02T13:34:07.446Z,46.08
2023-05-02T13:35:08.477Z,46.02
2023-05-02T13:36:07.492Z,46.05
2023-05-02T13:37:08.459Z,46.03
2023-05-02T13:38:08.474Z,46.04
2023-05-02T13:39:08.523Z,46.00
2023-05-02T13:40:08.560Z,46.00
2023-05-02T13:41:07.509Z,45.98
2023-05-02T13:42:08.529Z,45.99
2023-05-02T13:43:08.544Z,45.97
2023-05-02T13:44:07.541Z,45.93
2023-05-02T13:45:07.569Z,45.97
2023-05-02T13:46:08.598Z,45.94
2023-05-02T13:47:07.589Z,45.87
2023-05-02T13:48:08.634Z,45.85
2023-05-02T13:49:08.623Z,45.80
2023-05-02T13:50:08.635Z,45.80
2023-05-02T13:51:07.653Z,45.81
2023-05-02T13:52:07.683Z,45.80
2023-05-02T13:53:08.660Z,45.78
2023-05-02T13:54:07.679Z,45.76
2023-05-02T13:55:08.708Z,45.75
2023-05-02T13:56:07.714Z,45.74
2023-05-02T13:57:08.738Z,45.73
2023-05-02T13:58:08.730Z,45.73
2023-05-02T13:59:10.323Z,45.77
2023-05-02T14:00:08.745Z,45.84
2023-05-02T14:01:08.781Z,45.84
2023-05-02T14:02:08.742Z,45.77
2023-05-02T14:03:07.861Z,45.79
2023-05-02T14:04:07.878Z,45.75
2023-05-02T14:05:07.757Z,45.74
2023-05-02T14:06:07.745Z,45.66
2023-05-02T14:07:07.677Z,45.65
2023-05-02T14:08:07.683Z,45.59
2023-05-02T14:09:08.651Z,45.62
2023-05-02T14:10:08.649Z,45.63
2023-05-02T14:11:07.670Z,45.59
2023-05-02T14:12:08.639Z,45.60
2023-05-02T14:13:08.629Z,45.62
2023-05-02T14:14:08.621Z,45.64
2023-05-02T14:15:08.612Z,45.62
2023-05-02T14:16:07.754Z,45.64
2023-05-02T14:17:07.595Z,45.74
2023-05-02T14:18:08.626Z,45.73
2023-05-02T14:19:08.696Z,45.87
2023-05-02T14:20:07.569Z,45.93
2023-05-02T14:21:08.560Z,45.82
2023-05-02T14:22:07.544Z,45.90
2023-05-02T14:23:07.870Z,45.89
2023-05-02T14:24:07.534Z,45.95
2023-05-02T14:25:08.530Z,45.99
2023-05-02T14:26:07.521Z,45.94
2023-05-02T14:27:07.540Z,45.96
2023-05-02T14:28:08.517Z,46.00
2023-05-02T14:29:08.544Z,46.03
2023-05-02T14:30:08.494Z,46.04
2023-05-02T14:31:08.523Z,46.12
2023-05-02T14:32:08.666Z,46.17
2023-05-02T14:33:07.504Z,46.15
2023-05-02T14:34:09.041Z,46.15
2023-05-02T14:35:08.465Z,46.18
2023-05-02T14:36:08.431Z,46.15
2023-05-02T14:37:08.434Z,46.25
2023-05-02T14:38:08.423Z,46.17
2023-05-02T14:39:08.430Z,46.28
2023-05-02T14:40:08.418Z,46.25
2023-05-02T14:41:08.400Z,46.32
2023-05-02T14:42:08.407Z,46.27
2023-05-02T14:43:07.413Z,46.27
2023-05-02T14:44:07.393Z,46.29
2023-05-02T14:45:07.374Z,46.23
2023-05-02T14:46:07.370Z,46.25
2023-05-02T14:47:07.430Z,46.29
2023-05-02T14:48:07.382Z,46.33
2023-05-02T14:49:07.349Z,46.39
2023-05-02T14:50:07.367Z,46.39
2023-05-02T14:51:08.323Z,46.34
2023-05-02T14:52:07.319Z,46.30
2023-05-02T14:53:08.315Z,46.32
2023-05-02T14:54:07.309Z,46.42
2023-05-02T14:55:08.294Z,46.32
2023-05-02T14:56:07.293Z,46.33
2023-05-02T14:57:07.307Z,46.26
2023-05-02T14:58:08.277Z,46.23
2023-05-02T14:59:07.293Z,46.19
2023-05-02T15:00:07.754Z,46.25
2023-05-02T15:01:07.324Z,46.22
2023-05-02T15:02:08.291Z,46.20
2023-05-02T15:03:08.031Z,46.21
2023-05-02T15:04:08.416Z,46.18
2023-05-02T15:05:07.229Z,46.12
2023-05-02T15:06:08.329Z,46.18
2023-05-02T15:07:08.353Z,46.16
2023-05-02T15:08:07.196Z,46.20
2023-05-02T15:09:08.194Z,46.09
2023-05-02T15:10:08.192Z,46.08
2023-05-02T15:11:07.174Z,46.17
2023-05-02T15:12:08.174Z,46.21
2023-05-02T15:13:08.160Z,46.14
2023-05-02T15:14:07.157Z,46.16
2023-05-02T15:15:08.198Z,46.15
2023-05-02T15:16:07.211Z,46.06
2023-05-02T15:17:08.221Z,46.12
2023-05-02T15:18:07.227Z,46.12
2023-05-02T15:19:08.202Z,46.10
2023-05-02T15:20:08.213Z,46.12
2023-05-02T15:21:08.252Z,46.05
2023-05-02T15:22:08.268Z,46.07
2023-05-02T15:23:07.272Z,46.06
2023-05-02T15:24:08.276Z,46.02
2023-05-02T15:25:08.312Z,45.97
2023-05-02T15:26:08.304Z,45.96
2023-05-02T15:27:08.336Z,45.99
2023-05-02T15:28:07.341Z,46.02
2023-05-02T15:29:07.369Z,45.94
